Hb Tambaqui — PQ6909 — position and weather

sailwx.info

Track history (hours):
 
Tides and Currents Weather Stations Pressure Air Temp Water Temp Dewpoint Dewpoint Depression Visibility Wind Speed Wind Dir Waves Ship Positions

Hb Tambaqui

Last reported at 2018-Jun-19 20:16 UTC. Time now 2018-Jun-20 11:43 UTC.
Position S 01°32' W 048°45'.

Length 245 m; draft 11.6 m.

Type: Cargo ship. MMSI: 710012230.

Date/timePositionNaut miles runAvg speedWind from/ knotsBaromVisibWave heightAir tempDewpointWater temp
2018-Jun-19 20:16S 01°32' W 048°45'0 0.0
2018-Jun-19 19:58S 01°32' W 048°45'0 0.0
2018-Jun-19 19:28S 01°32' W 048°45'0 0.0
2018-Jun-19 18:58S 01°32' W 048°45'0 0.0
2018-Jun-19 18:28S 01°32' W 048°45'0 0.0
2018-Jun-19 17:58S 01°32' W 048°45'0 0.0
2018-Jun-17 22:08S 01°32' W 048°45'0 0.0
2018-Jun-17 22:00S 01°32' W 048°45'0 0.0
2018-Jun-17 21:30S 01°32' W 048°45'0 0.0
2018-Jun-17 21:00S 01°32' W 048°45'0 0.0
2018-Jun-17 20:30S 01°32' W 048°45'0 0.0
2018-Jun-17 20:00S 01°32' W 048°45'0 0.0
2018-Jun-17 19:30S 01°32' W 048°45'0 0.0
2018-Jun-17 19:00S 01°32' W 048°45'0 0.0
2018-Jun-17 18:30S 01°32' W 048°45'0 0.0
2018-Jun-17 18:00S 01°32' W 048°45'0 0.0
2018-Jun-17 17:30S 01°32' W 048°45'0 0.0
2018-Jun-17 17:00S 01°32' W 048°45'0 0.0
2018-Jun-17 16:30S 01°32' W 048°45'0 0.0
2018-Jun-17 16:00S 01°32' W 048°45'0 0.0
2018-Jun-17 15:30S 01°32' W 048°45'0 0.6
2018-Jun-17 15:00S 01°32' W 048°46'1 2.6
2018-Jun-17 14:30S 01°31' W 048°46'5 9.1
2018-Jun-17 14:00S 01°27' W 048°45'156 4.1
2018-Jun-15 23:38N 00°11' W 050°47'314.9
2018-Jun-15 23:27N 00°10' W 050°49'613.7
2018-Jun-15 23:00N 00°09' W 050°56'713.6
2018-Jun-15 22:29N 00°03' W 051°00'5 8.8
2018-Jun-15 21:57S 00°01' W 051°00'510.8
2018-Jun-15 21:30S 00°06' W 051°01'611.8
2018-Jun-15 21:00S 00°12' W 051°02'511.0
2018-Jun-15 20:31S 00°17' W 051°04'510.4
2018-Jun-15 20:01S 00°21' W 051°07'510.8
2018-Jun-15 19:30S 00°25' W 051°11'20712.4
2018-Jun-15 02:46S 02°20' W 054°03'413.8
2018-Jun-15 02:30S 02°22' W 054°06'815.9
2018-Jun-15 02:00S 02°24' W 054°14'815.4
2018-Jun-15 01:30S 02°25' W 054°22'815.0
2018-Jun-15 00:59S 02°27' W 054°29'714.1
2018-Jun-15 00:31S 02°28' W 054°36'5 9.2
2018-Jun-15 00:01S 02°26' W 054°40'5 9.5
2018-Jun-14 23:30S 02°23' W 054°44'714.9
2018-Jun-14 23:00S 02°16' W 054°46'714.7
2018-Jun-14 22:30S 02°10' W 054°50'815.3
2018-Jun-14 22:00S 02°11' W 054°58'612.7
2018-Jun-14 21:30S 02°13' W 055°04'91 3.6
2018-Jun-13 20:06S 01°28' W 056°23'0 0.0
2018-Jun-13 19:57S 01°28' W 056°23'0 0.0
2018-Jun-13 19:30S 01°28' W 056°23'0 0.0
2018-Jun-13 18:57S 01°28' W 056°23'0 0.0
2018-Jun-13 18:30S 01°28' W 056°23'0 0.0
2018-Jun-13 18:00S 01°28' W 056°23'0 0.0
2018-Jun-13 17:30S 01°28' W 056°23'1 0.0
2018-Jun-12 14:48S 01°28' W 056°22'0 0.0
2018-Jun-12 14:30S 01°28' W 056°22'0 0.0
2018-Jun-12 14:00S 01°28' W 056°22'0 0.0
2018-Jun-12 13:27S 01°28' W 056°22'0 0.0
2018-Jun-12 12:51S 01°28' W 056°22'0 0.0
2018-Jun-12 12:30S 01°28' W 056°22'0 0.0
2018-Jun-12 11:57S 01°28' W 056°22'0 0.0
2018-Jun-12 11:27S 01°28' W 056°22'0 0.0
2018-Jun-12 10:57S 01°28' W 056°22'0 0.0
2018-Jun-12 10:24S 01°28' W 056°22'0 0.0
2018-Jun-12 10:00S 01°28' W 056°22'0 0.0
2018-Jun-12 09:24S 01°28' W 056°22'0 0.0
2018-Jun-12 08:54S 01°28' W 056°22'0 0.0
2018-Jun-12 08:27S 01°28' W 056°22'0 0.0
2018-Jun-12 08:00S 01°28' W 056°22'0 0.0
2018-Jun-12 07:30S 01°28' W 056°22'0 0.0
2018-Jun-12 06:54S 01°28' W 056°22'0 0.0
2018-Jun-12 06:27S 01°28' W 056°22'0 0.0
2018-Jun-12 06:00S 01°28' W 056°22'0 0.0
2018-Jun-12 05:27S 01°28' W 056°22'0 0.0
2018-Jun-12 05:00S 01°28' W 056°22'0 0.0
2018-Jun-12 04:27S 01°28' W 056°22'0 0.0
2018-Jun-12 04:00S 01°28' W 056°22'0 0.0
2018-Jun-12 03:30S 01°28' W 056°22'0 0.0
2018-Jun-12 03:00S 01°28' W 056°22'0 0.0
2018-Jun-12 02:30S 01°28' W 056°22'0 0.0
2018-Jun-12 02:00S 01°28' W 056°22'0 0.0
2018-Jun-12 01:30S 01°28' W 056°22'0 0.0
2018-Jun-12 01:00S 01°28' W 056°22'0 0.0
2018-Jun-12 00:27S 01°28' W 056°22'0 0.0
2018-Jun-12 00:00S 01°28' W 056°22'0 0.1
2018-Jun-11 23:30S 01°28' W 056°22'2 3.3
2018-Jun-11 23:01S 01°28' W 056°21'4 8.1
2018-Jun-11 22:30S 01°31' W 056°18'4 8.5
2018-Jun-11 22:00S 01°32' W 056°14'4 8.1
2018-Jun-11 21:30S 01°31' W 056°10'5 9.9
2018-Jun-11 21:00S 01°31' W 056°05'295 6.9
2018-Jun-10 02:00S 00°16' W 051°20'610.6
2018-Jun-10 01:29S 00°11' W 051°16'4 9.1
2018-Jun-10 01:00S 00°09' W 051°13'510.3
2018-Jun-10 00:30S 00°06' W 051°08'3 6.4
2018-Jun-10 00:00S 00°04' W 051°06'3 5.1
2018-Jun-09 23:29S 00°02' W 051°04'3 6.2
2018-Jun-09 23:00N 00°00' W 051°02'4 7.1
2018-Jun-09 22:29N 00°03' W 050°59'0 0.8
2018-Jun-09 21:59N 00°03' W 050°59'0 0.0
2018-Jun-09 21:29N 00°03' W 050°59'0 0.0
2018-Jun-09 20:59N 00°03' W 050°59'0 0.0
2018-Jun-09 20:29N 00°03' W 050°59'  
Track history (hours):
 
Tides and Currents Weather Stations Pressure Air Temp Water Temp Dewpoint Dewpoint Depression Visibility Wind Speed Wind Dir Waves Ship Positions

Hb Tambaqui

Last reported at 2018-Jun-19 20:16 UTC. Time now 2018-Jun-20 11:43 UTC.
Position S 01°32' W 048°45'.

Length 245 m; draft 11.6 m.

Type: Cargo ship. MMSI: 710012230.

Date/timePositionNaut miles runAvg speedWind from/ knotsBaromVisibWave heightAir tempDewpointWater temp
2018-Jun-19 20:16S 01°32' W 048°45'0 0.0
2018-Jun-19 19:58S 01°32' W 048°45'0 0.0
2018-Jun-19 19:28S 01°32' W 048°45'0 0.0
2018-Jun-19 18:58S 01°32' W 048°45'0 0.0
2018-Jun-19 18:28S 01°32' W 048°45'0 0.0
2018-Jun-19 17:58S 01°32' W 048°45'0 0.0
2018-Jun-17 22:08S 01°32' W 048°45'0 0.0
2018-Jun-17 22:00S 01°32' W 048°45'0 0.0
2018-Jun-17 21:30S 01°32' W 048°45'0 0.0
2018-Jun-17 21:00S 01°32' W 048°45'0 0.0
2018-Jun-17 20:30S 01°32' W 048°45'0 0.0
2018-Jun-17 20:00S 01°32' W 048°45'0 0.0
2018-Jun-17 19:30S 01°32' W 048°45'0 0.0
2018-Jun-17 19:00S 01°32' W 048°45'0 0.0
2018-Jun-17 18:30S 01°32' W 048°45'0 0.0
2018-Jun-17 18:00S 01°32' W 048°45'0 0.0
2018-Jun-17 17:30S 01°32' W 048°45'0 0.0
2018-Jun-17 17:00S 01°32' W 048°45'0 0.0
2018-Jun-17 16:30S 01°32' W 048°45'0 0.0
2018-Jun-17 16:00S 01°32' W 048°45'0 0.0
2018-Jun-17 15:30S 01°32' W 048°45'0 0.6
2018-Jun-17 15:00S 01°32' W 048°46'1 2.6
2018-Jun-17 14:30S 01°31' W 048°46'5 9.1
2018-Jun-17 14:00S 01°27' W 048°45'156 4.1
2018-Jun-15 23:38N 00°11' W 050°47'314.9
2018-Jun-15 23:27N 00°10' W 050°49'613.7
2018-Jun-15 23:00N 00°09' W 050°56'713.6
2018-Jun-15 22:29N 00°03' W 051°00'5 8.8
2018-Jun-15 21:57S 00°01' W 051°00'510.8
2018-Jun-15 21:30S 00°06' W 051°01'611.8
2018-Jun-15 21:00S 00°12' W 051°02'511.0
2018-Jun-15 20:31S 00°17' W 051°04'510.4
2018-Jun-15 20:01S 00°21' W 051°07'510.8
2018-Jun-15 19:30S 00°25' W 051°11'20712.4
2018-Jun-15 02:46S 02°20' W 054°03'413.8
2018-Jun-15 02:30S 02°22' W 054°06'815.9
2018-Jun-15 02:00S 02°24' W 054°14'815.4
2018-Jun-15 01:30S 02°25' W 054°22'815.0
2018-Jun-15 00:59S 02°27' W 054°29'714.1
2018-Jun-15 00:31S 02°28' W 054°36'5 9.2
2018-Jun-15 00:01S 02°26' W 054°40'5 9.5
2018-Jun-14 23:30S 02°23' W 054°44'714.9
2018-Jun-14 23:00S 02°16' W 054°46'714.7
2018-Jun-14 22:30S 02°10' W 054°50'815.3
2018-Jun-14 22:00S 02°11' W 054°58'612.7
2018-Jun-14 21:30S 02°13' W 055°04'91 3.6
2018-Jun-13 20:06S 01°28' W 056°23'0 0.0
2018-Jun-13 19:57S 01°28' W 056°23'0 0.0
2018-Jun-13 19:30S 01°28' W 056°23'0 0.0
2018-Jun-13 18:57S 01°28' W 056°23'0 0.0
2018-Jun-13 18:30S 01°28' W 056°23'0 0.0
2018-Jun-13 18:00S 01°28' W 056°23'0 0.0
2018-Jun-13 17:30S 01°28' W 056°23'1 0.0
2018-Jun-12 14:48S 01°28' W 056°22'0 0.0
2018-Jun-12 14:30S 01°28' W 056°22'0 0.0
2018-Jun-12 14:00S 01°28' W 056°22'0 0.0
2018-Jun-12 13:27S 01°28' W 056°22'0 0.0
2018-Jun-12 12:51S 01°28' W 056°22'0 0.0
2018-Jun-12 12:30S 01°28' W 056°22'0 0.0
2018-Jun-12 11:57S 01°28' W 056°22'0 0.0
2018-Jun-12 11:27S 01°28' W 056°22'0 0.0
2018-Jun-12 10:57S 01°28' W 056°22'0 0.0
2018-Jun-12 10:24S 01°28' W 056°22'0 0.0
2018-Jun-12 10:00S 01°28' W 056°22'0 0.0
2018-Jun-12 09:24S 01°28' W 056°22'0 0.0
2018-Jun-12 08:54S 01°28' W 056°22'0 0.0
2018-Jun-12 08:27S 01°28' W 056°22'0 0.0
2018-Jun-12 08:00S 01°28' W 056°22'0 0.0
2018-Jun-12 07:30S 01°28' W 056°22'0 0.0
2018-Jun-12 06:54S 01°28' W 056°22'0 0.0
2018-Jun-12 06:27S 01°28' W 056°22'0 0.0
2018-Jun-12 06:00S 01°28' W 056°22'0 0.0
2018-Jun-12 05:27S 01°28' W 056°22'0 0.0
2018-Jun-12 05:00S 01°28' W 056°22'0 0.0
2018-Jun-12 04:27S 01°28' W 056°22'0 0.0
2018-Jun-12 04:00S 01°28' W 056°22'0 0.0
2018-Jun-12 03:30S 01°28' W 056°22'0 0.0
2018-Jun-12 03:00S 01°28' W 056°22'0 0.0
2018-Jun-12 02:30S 01°28' W 056°22'0 0.0
2018-Jun-12 02:00S 01°28' W 056°22'0 0.0
2018-Jun-12 01:30S 01°28' W 056°22'0 0.0
2018-Jun-12 01:00S 01°28' W 056°22'0 0.0
2018-Jun-12 00:27S 01°28' W 056°22'0 0.0
2018-Jun-12 00:00S 01°28' W 056°22'0 0.1
2018-Jun-11 23:30S 01°28' W 056°22'2 3.3
2018-Jun-11 23:01S 01°28' W 056°21'4 8.1
2018-Jun-11 22:30S 01°31' W 056°18'4 8.5
2018-Jun-11 22:00S 01°32' W 056°14'4 8.1
2018-Jun-11 21:30S 01°31' W 056°10'5 9.9
2018-Jun-11 21:00S 01°31' W 056°05'295 6.9
2018-Jun-10 02:00S 00°16' W 051°20'610.6
2018-Jun-10 01:29S 00°11' W 051°16'4 9.1
2018-Jun-10 01:00S 00°09' W 051°13'510.3
2018-Jun-10 00:30S 00°06' W 051°08'3 6.4
2018-Jun-10 00:00S 00°04' W 051°06'3 5.1
2018-Jun-09 23:29S 00°02' W 051°04'3 6.2
2018-Jun-09 23:00N 00°00' W 051°02'4 7.1
2018-Jun-09 22:29N 00°03' W 050°59'0 0.8
2018-Jun-09 21:59N 00°03' W 050°59'0 0.0
2018-Jun-09 21:29N 00°03' W 050°59'0 0.0
2018-Jun-09 20:59N 00°03' W 050°59'0 0.0
2018-Jun-09 20:29N 00°03' W 050°59'  

Dump ship's entire track history